createdAt,value
2022-11-09T00:02:05.664Z,47.84
2022-11-09T00:04:38.732Z,49.01
2022-11-09T00:07:08.152Z,49.95
2022-11-09T00:09:38.064Z,48.91
2022-11-09T00:12:06.007Z,48.52
2022-11-09T00:14:32.455Z,48.58
2022-11-09T00:16:58.921Z,48.53
2022-11-09T00:19:26.043Z,49.00
2022-11-09T00:21:53.161Z,49.42
2022-11-09T00:24:19.583Z,48.75
2022-11-09T00:26:46.082Z,49.25
2022-11-09T00:29:12.545Z,48.10
2022-11-09T00:31:39.006Z,48.50
2022-11-09T00:34:05.439Z,48.34
2022-11-09T00:36:31.835Z,48.36
2022-11-09T00:39:00.610Z,48.69
2022-11-09T00:41:27.735Z,48.46
2022-11-09T00:43:54.373Z,48.66
2022-11-09T00:46:21.615Z,48.42
2022-11-09T00:48:48.247Z,48.79
2022-11-09T00:51:14.759Z,48.10
2022-11-09T00:53:42.587Z,48.18
2022-11-09T00:56:12.079Z,48.21
2022-11-09T00:58:39.381Z,48.61
2022-11-09T01:01:14.411Z,48.65
2022-11-09T01:03:41.166Z,48.43
2022-11-09T01:06:08.333Z,48.57
2022-11-09T01:08:36.104Z,48.94
2022-11-09T01:11:07.301Z,48.24
2022-11-09T01:13:34.554Z,48.14
2022-11-09T01:16:06.224Z,48.17
2022-11-09T01:18:33.099Z,48.43
2022-11-09T01:20:59.503Z,48.39
2022-11-09T01:23:25.961Z,48.32
2022-11-09T01:25:59.458Z,48.47
2022-11-09T01:28:26.106Z,48.36
2022-11-09T01:30:52.880Z,48.61
2022-11-09T01:33:19.580Z,49.28
2022-11-09T01:35:46.314Z,48.42
2022-11-09T01:38:12.783Z,48.48
2022-11-09T01:40:40.292Z,48.63
2022-11-09T01:43:19.182Z,48.65
2022-11-09T01:45:50.038Z,49.81
2022-11-09T01:48:37.581Z,49.27
2022-11-09T01:51:37.615Z,49.25
2022-11-09T01:54:12.900Z,49.63
2022-11-09T01:56:40.060Z,50.27
2022-11-09T01:59:11.739Z,49.43
2022-11-09T02:01:38.437Z,49.65
2022-11-09T02:04:13.693Z,49.22
2022-11-09T02:06:40.699Z,49.50
2022-11-09T02:09:12.594Z,49.78
2022-11-09T02:11:39.190Z,49.86
2022-11-09T02:14:07.260Z,49.71
2022-11-09T02:16:34.012Z,49.64
2022-11-09T02:19:01.130Z,49.37
2022-11-09T02:21:30.879Z,50.09
2022-11-09T02:23:57.906Z,49.69
2022-11-09T02:26:49.498Z,50.50
2022-11-09T02:29:20.657Z,50.94
2022-11-09T02:31:52.397Z,50.64
2022-11-09T02:34:20.299Z,52.63
2022-11-09T02:36:47.381Z,51.21
2022-11-09T02:39:16.933Z,50.71
2022-11-09T02:41:48.372Z,49.88
2022-11-09T02:44:16.585Z,50.74
2022-11-09T02:46:43.144Z,50.53
2022-11-09T02:49:09.573Z,51.06
2022-11-09T02:51:36.198Z,51.20
2022-11-09T02:54:03.409Z,51.66
2022-11-09T02:56:29.837Z,51.19
2022-11-09T02:58:56.359Z,50.88
2022-11-09T03:01:23.111Z,50.59
2022-11-09T03:03:49.679Z,50.14
2022-11-09T03:06:16.327Z,51.28
2022-11-09T03:08:42.792Z,51.23
2022-11-09T03:11:09.224Z,50.65
2022-11-09T03:13:36.140Z,51.16
2022-11-09T03:16:08.520Z,50.53
2022-11-09T03:18:34.995Z,50.79
2022-11-09T03:21:06.157Z,49.87
2022-11-09T03:23:33.086Z,49.97
2022-11-09T03:25:59.560Z,49.51
2022-11-09T03:28:26.095Z,50.12
2022-11-09T03:30:52.643Z,50.44
2022-11-09T03:33:19.517Z,49.73
2022-11-09T03:35:46.235Z,49.50
2022-11-09T03:38:13.403Z,50.77
2022-11-09T03:40:39.939Z,50.64
2022-11-09T03:43:06.409Z,52.49
2022-11-09T03:45:33.081Z,50.51
2022-11-09T03:48:02.327Z,51.10
2022-11-09T03:50:31.395Z,50.87
2022-11-09T03:52:59.861Z,51.28
2022-11-09T03:55:27.371Z,51.12
2022-11-09T03:57:54.339Z,50.41
2022-11-09T04:00:22.616Z,50.66
2022-11-09T04:02:49.092Z,50.27
2022-11-09T04:05:15.653Z,51.08
2022-11-09T04:07:48.818Z,49.93
2022-11-09T04:10:15.552Z,50.30
2022-11-09T04:12:42.013Z,50.64
2022-11-09T04:15:09.229Z,50.11
2022-11-09T04:17:35.843Z,50.08
2022-11-09T04:20:02.280Z,50.75
2022-11-09T04:22:28.714Z,51.04
2022-11-09T04:24:55.135Z,51.07
2022-11-09T04:27:21.679Z,50.48
2022-11-09T04:29:48.111Z,50.14
2022-11-09T04:32:14.787Z,50.74
2022-11-09T04:34:41.446Z,52.16
2022-11-09T04:37:09.242Z,50.77
2022-11-09T04:39:35.955Z,50.88
2022-11-09T04:42:02.624Z,51.33
2022-11-09T04:44:31.988Z,51.74
2022-11-09T04:46:58.393Z,51.94
2022-11-09T04:49:24.979Z,51.88
2022-11-09T04:51:51.419Z,53.65
2022-11-09T04:54:17.855Z,52.94
2022-11-09T04:56:44.342Z,51.88
2022-11-09T04:59:10.795Z,52.75
2022-11-09T05:01:37.276Z,53.97
2022-11-09T05:04:03.850Z,53.28
2022-11-09T05:06:33.106Z,53.66
2022-11-09T05:09:03.485Z,54.12
2022-11-09T05:11:31.031Z,55.08
2022-11-09T05:13:57.759Z,54.87
2022-11-09T05:16:24.602Z,56.18
2022-11-09T05:18:52.068Z,56.50
2022-11-09T05:21:18.821Z,57.72
2022-11-09T05:24:00.849Z,58.57
2022-11-09T05:26:38.781Z,57.57
2022-11-09T05:29:07.719Z,58.23
2022-11-09T05:31:34.705Z,59.12
2022-11-09T05:34:02.006Z,58.82
2022-11-09T05:36:30.409Z,59.15
2022-11-09T05:38:58.031Z,58.89
2022-11-09T05:41:24.643Z,59.39
2022-11-09T05:43:51.163Z,58.91
2022-11-09T05:46:18.628Z,59.84
2022-11-09T05:48:46.027Z,59.74
2022-11-09T05:51:50.293Z,58.97
2022-11-09T05:54:16.693Z,59.86
2022-11-09T05:56:43.165Z,60.11
2022-11-09T05:59:09.696Z,60.06
2022-11-09T06:01:36.117Z,61.48
2022-11-09T06:04:02.659Z,61.19
2022-11-09T06:06:29.901Z,61.63
2022-11-09T06:08:56.432Z,61.05
2022-11-09T06:11:24.274Z,62.73
2022-11-09T06:13:52.840Z,62.26
2022-11-09T06:16:19.391Z,63.11
2022-11-09T06:18:45.889Z,61.21
2022-11-09T06:21:12.648Z,60.97
2022-11-09T06:23:39.200Z,60.61
2022-11-09T06:26:09.534Z,61.08
2022-11-09T06:28:37.705Z,61.28
2022-11-09T06:31:06.919Z,60.71
2022-11-09T06:33:35.582Z,61.49
2022-11-09T06:36:03.011Z,62.53
2022-11-09T06:38:29.876Z,62.77
2022-11-09T06:40:59.264Z,62.78
2022-11-09T06:43:26.623Z,62.48
2022-11-09T06:45:53.922Z,62.94
2022-11-09T06:48:21.219Z,62.64
2022-11-09T06:50:47.866Z,63.02
2022-11-09T06:53:15.953Z,62.62
2022-11-09T06:55:47.385Z,62.79
2022-11-09T06:58:16.540Z,62.05
2022-11-09T07:00:44.085Z,62.55
2022-11-09T07:03:15.492Z,63.01
2022-11-09T07:05:41.976Z,63.60
2022-11-09T07:08:08.423Z,62.64
2022-11-09T07:10:34.948Z,63.80
2022-11-09T07:13:03.208Z,63.74
2022-11-09T07:15:29.660Z,63.80
2022-11-09T07:18:00.299Z,63.90
2022-11-09T07:20:27.542Z,62.87
2022-11-09T07:22:54.137Z,61.85
2022-11-09T07:25:21.006Z,61.96
2022-11-09T07:27:47.527Z,62.02
2022-11-09T07:30:14.508Z,63.10
2022-11-09T07:35:28.712Z,62.98
2022-11-09T07:37:59.926Z,63.46
2022-11-09T07:40:26.339Z,63.07
2022-11-09T07:42:52.814Z,62.93
2022-11-09T07:45:19.234Z,61.96
2022-11-09T07:47:45.646Z,61.36
2022-11-09T07:50:12.068Z,62.24
2022-11-09T07:52:38.481Z,61.78
2022-11-09T07:55:05.378Z,63.63
2022-11-09T07:57:31.823Z,62.38
2022-11-09T07:59:59.135Z,62.19
2022-11-09T08:02:25.608Z,61.16
2022-11-09T08:04:52.139Z,61.15
2022-11-09T08:07:18.570Z,61.88
2022-11-09T08:09:45.203Z,62.52
2022-11-09T08:12:11.617Z,61.83
2022-11-09T08:14:38.098Z,62.47
2022-11-09T08:17:04.514Z,59.05
2022-11-09T08:19:30.962Z,55.74
2022-11-09T08:21:57.862Z,53.28
2022-11-09T08:24:24.391Z,54.13
2022-11-09T08:26:50.838Z,54.24
2022-11-09T08:29:17.458Z,54.18
2022-11-09T08:31:43.998Z,53.25
2022-11-09T08:34:12.961Z,53.17
2022-11-09T08:36:39.479Z,52.61
2022-11-09T08:39:06.024Z,53.64
2022-11-09T08:41:33.744Z,54.55
2022-11-09T08:44:00.202Z,53.72
2022-11-09T08:46:26.635Z,55.00
2022-11-09T08:48:53.065Z,55.48
2022-11-09T08:51:19.593Z,56.12
2022-11-09T08:53:46.042Z,57.10
2022-11-09T08:56:12.925Z,57.63
2022-11-09T08:58:39.737Z,58.13
2022-11-09T09:01:12.263Z,57.15
2022-11-09T09:03:41.978Z,57.26
2022-11-09T09:06:08.833Z,57.41
2022-11-09T09:08:35.364Z,55.99
2022-11-09T09:11:06.047Z,57.48
2022-11-09T09:13:35.037Z,57.26
2022-11-09T09:16:10.942Z,59.29
2022-11-09T09:18:37.601Z,58.62
2022-11-09T09:21:08.648Z,57.68
2022-11-09T09:23:35.465Z,58.25
2022-11-09T09:26:01.917Z,57.26
2022-11-09T09:28:28.464Z,57.33
2022-11-09T09:30:58.626Z,57.16
2022-11-09T09:33:25.588Z,58.16
2022-11-09T09:35:52.368Z,58.81
2022-11-09T09:38:19.032Z,57.30
2022-11-09T09:41:06.737Z,58.25
2022-11-09T09:43:43.226Z,57.58
2022-11-09T09:46:27.951Z,58.82
2022-11-09T09:49:03.728Z,55.97
2022-11-09T09:51:43.019Z,57.84
2022-11-09T09:54:18.075Z,57.34
2022-11-09T09:56:46.849Z,56.87
2022-11-09T09:59:27.044Z,56.23
2022-11-09T10:01:53.537Z,55.15
2022-11-09T10:04:22.547Z,54.11
2022-11-09T10:07:07.623Z,54.48
2022-11-09T10:09:55.232Z,53.08
2022-11-09T10:13:11.241Z,54.72
2022-11-09T10:15:54.389Z,54.11
2022-11-09T10:18:38.032Z,54.21
2022-11-09T10:21:44.005Z,53.57
2022-11-09T10:24:31.584Z,57.12
2022-11-09T10:27:00.073Z,55.18
2022-11-09T10:29:37.668Z,55.33
2022-11-09T10:32:24.117Z,54.90
2022-11-09T10:35:02.741Z,54.13
2022-11-09T10:37:38.882Z,54.12
2022-11-09T10:40:08.007Z,54.63
2022-11-09T10:42:34.780Z,55.27
2022-11-09T10:45:12.229Z,54.11
2022-11-09T10:47:49.954Z,53.66
2022-11-09T10:50:34.648Z,52.73
2022-11-09T10:53:19.703Z,53.48
2022-11-09T10:55:50.172Z,53.18
2022-11-09T10:58:25.346Z,54.48
2022-11-09T11:01:17.685Z,56.62
2022-11-09T11:03:45.617Z,57.60
2022-11-09T11:06:25.925Z,59.50
2022-11-09T11:09:13.846Z,58.45
2022-11-09T11:11:40.642Z,59.42
2022-11-09T11:14:26.895Z,63.58
2022-11-09T11:16:53.882Z,65.87
2022-11-09T11:19:37.035Z,64.11
2022-11-09T11:22:12.553Z,63.91
2022-11-09T11:24:51.391Z,69.58
2022-11-09T11:27:43.205Z,74.34
2022-11-09T11:30:36.139Z,77.78
2022-11-09T11:33:12.343Z,73.70
2022-11-09T11:35:41.989Z,75.86
2022-11-09T11:38:14.482Z,76.87
2022-11-09T11:40:45.748Z,76.02
2022-11-09T11:43:18.570Z,76.46
2022-11-09T11:46:02.601Z,75.47
2022-11-09T11:48:49.621Z,75.69
2022-11-09T11:51:46.229Z,75.87
2022-11-09T11:54:34.475Z,73.85
2022-11-09T11:57:19.894Z,72.78
2022-11-09T11:59:54.992Z,72.63
2022-11-09T12:02:57.331Z,74.89
2022-11-09T12:06:02.626Z,73.62
2022-11-09T12:08:36.608Z,72.47
2022-11-09T12:11:12.444Z,75.23
2022-11-09T12:14:03.861Z,73.58
2022-11-09T12:16:39.767Z,73.92
2022-11-09T12:19:36.677Z,75.22
2022-11-09T12:22:13.194Z,72.07
2022-11-09T12:24:56.841Z,72.95
2022-11-09T12:27:44.507Z,72.74
2022-11-09T12:30:30.859Z,73.10
2022-11-09T12:33:03.538Z,74.03
2022-11-09T12:35:30.416Z,74.89
2022-11-09T12:38:12.754Z,73.71
2022-11-09T12:40:52.080Z,73.09
2022-11-09T12:43:24.100Z,70.69
2022-11-09T12:45:52.847Z,73.18
2022-11-09T12:48:26.736Z,73.66
2022-11-09T12:50:53.780Z,71.64
2022-11-09T12:53:24.563Z,71.84
2022-11-09T12:56:17.258Z,72.63
2022-11-09T12:58:44.323Z,71.60
2022-11-09T13:01:14.473Z,71.79
2022-11-09T13:03:57.031Z,70.63
2022-11-09T13:06:27.805Z,71.79
2022-11-09T13:09:15.883Z,74.49
2022-11-09T13:11:47.299Z,71.64
2022-11-09T13:14:22.982Z,71.83
2022-11-09T13:16:51.176Z,70.58
2022-11-09T13:19:41.661Z,69.64
2022-11-09T13:24:52.221Z,69.01
2022-11-09T13:27:41.444Z,69.41
2022-11-09T13:30:30.735Z,72.92
2022-11-09T13:33:06.225Z,71.08
2022-11-09T13:35:42.056Z,70.47
2022-11-09T13:38:18.607Z,69.81
2022-11-09T13:40:57.194Z,69.38
2022-11-09T13:43:38.899Z,71.53
2022-11-09T13:46:14.416Z,72.89
2022-11-09T13:48:48.837Z,74.92
2022-11-09T13:51:19.363Z,75.26
2022-11-09T13:53:57.758Z,74.76
2022-11-09T13:56:30.122Z,74.94
2022-11-09T13:59:03.486Z,76.04
2022-11-09T14:01:45.296Z,73.92
2022-11-09T14:04:37.718Z,75.86
2022-11-09T14:07:25.241Z,76.68
2022-11-09T14:10:01.896Z,76.92
2022-11-09T14:12:46.769Z,76.73
2022-11-09T14:15:13.154Z,78.52
2022-11-09T14:17:52.580Z,76.21
2022-11-09T14:20:43.150Z,74.33
2022-11-09T14:23:18.866Z,74.35
2022-11-09T14:25:46.108Z,74.06
2022-11-09T14:28:30.984Z,73.00
2022-11-09T14:30:57.655Z,74.84
2022-11-09T14:33:26.842Z,73.80
2022-11-09T14:35:57.730Z,75.48
2022-11-09T14:38:28.057Z,76.40
2022-11-09T14:40:55.512Z,77.67
2022-11-09T14:43:44.779Z,77.25
2022-11-09T14:46:20.785Z,77.75
2022-11-09T14:48:59.183Z,77.96
2022-11-09T14:51:35.464Z,77.54
2022-11-09T14:54:05.671Z,77.72
2022-11-09T14:56:33.897Z,79.82
2022-11-09T14:59:02.156Z,79.99
2022-11-09T15:01:28.826Z,79.30
2022-11-09T15:04:27.523Z,76.82
2022-11-09T15:07:00.695Z,73.39
2022-11-09T15:09:41.759Z,72.38
2022-11-09T15:12:19.481Z,71.45
2022-11-09T15:14:58.620Z,71.81
2022-11-09T15:17:32.290Z,71.00
2022-11-09T15:20:20.579Z,71.31
2022-11-09T15:22:50.179Z,71.30
2022-11-09T15:25:25.773Z,68.79
2022-11-09T15:28:21.413Z,68.42
2022-11-09T15:30:54.135Z,68.25
2022-11-09T15:33:26.634Z,68.79
2022-11-09T15:35:56.124Z,68.83
2022-11-09T15:38:39.137Z,68.46
2022-11-09T15:41:25.295Z,68.89
2022-11-09T15:43:52.107Z,69.59
2022-11-09T15:46:27.467Z,70.68
2022-11-09T15:48:57.956Z,71.01
2022-11-09T15:51:24.507Z,71.07
2022-11-09T15:53:51.008Z,72.26
2022-11-09T15:56:23.244Z,71.70
2022-11-09T15:58:52.336Z,71.77
2022-11-09T16:01:19.290Z,72.06
2022-11-09T16:03:45.807Z,72.18
2022-11-09T16:06:18.948Z,71.34
2022-11-09T16:08:49.720Z,72.77
2022-11-09T16:11:16.278Z,72.42
2022-11-09T16:13:42.718Z,72.59
2022-11-09T16:16:11.575Z,71.56
2022-11-09T16:18:38.385Z,72.04
2022-11-09T16:21:13.526Z,71.70
2022-11-09T16:23:40.261Z,71.67
2022-11-09T16:26:14.696Z,71.47
2022-11-09T16:28:41.541Z,72.16
2022-11-09T16:31:08.015Z,71.91
2022-11-09T16:33:35.069Z,72.47
2022-11-09T16:36:05.791Z,73.00
2022-11-09T16:38:38.919Z,72.74
2022-11-09T16:41:05.949Z,72.52
2022-11-09T16:43:36.294Z,73.15
2022-11-09T16:46:02.825Z,73.10
2022-11-09T16:48:32.784Z,73.50
2022-11-09T16:50:59.416Z,72.86
2022-11-09T16:53:27.243Z,72.43
2022-11-09T16:55:54.474Z,72.59
2022-11-09T16:58:21.310Z,72.70
2022-11-09T17:01:09.684Z,72.66
2022-11-09T17:03:36.270Z,72.51
2022-11-09T17:06:03.463Z,73.64
2022-11-09T17:08:30.156Z,73.20
2022-11-09T17:10:56.607Z,72.30
2022-11-09T17:13:23.048Z,71.77
2022-11-09T17:15:52.550Z,72.12
2022-11-09T17:18:19.378Z,71.70
2022-11-09T17:20:48.772Z,71.94
2022-11-09T17:23:18.145Z,71.75
2022-11-09T17:25:58.958Z,73.44
2022-11-09T17:28:26.162Z,71.88
2022-11-09T17:30:52.694Z,71.23
2022-11-09T17:33:19.775Z,71.97
2022-11-09T17:35:46.297Z,71.77
2022-11-09T17:38:12.805Z,70.46
2022-11-09T17:40:39.381Z,70.09
2022-11-09T17:43:05.976Z,69.72
2022-11-09T17:45:34.648Z,69.18
2022-11-09T17:48:01.720Z,68.44
2022-11-09T17:50:28.151Z,67.44
2022-11-09T17:52:54.940Z,68.76
2022-11-09T17:55:21.434Z,67.07
2022-11-09T17:57:48.599Z,66.66
2022-11-09T18:00:15.593Z,66.72
2022-11-09T18:02:42.121Z,66.93
2022-11-09T18:05:09.066Z,66.62
2022-11-09T18:07:35.476Z,66.25
2022-11-09T18:10:01.906Z,65.46
2022-11-09T18:12:28.453Z,65.46
2022-11-09T18:14:54.936Z,65.13
2022-11-09T18:17:21.414Z,64.96
2022-11-09T18:19:48.377Z,65.33
2022-11-09T18:22:14.801Z,64.80
2022-11-09T18:24:41.325Z,65.43
2022-11-09T18:27:07.767Z,65.19
2022-11-09T18:29:34.208Z,65.71
2022-11-09T18:32:00.671Z,64.32
2022-11-09T18:34:27.153Z,65.10
2022-11-09T18:36:53.896Z,64.77
2022-11-09T18:39:20.367Z,63.77
2022-11-09T18:41:46.857Z,63.62
2022-11-09T18:44:13.418Z,63.30
2022-11-09T18:46:39.880Z,63.51
2022-11-09T18:49:10.114Z,64.74
2022-11-09T18:51:39.634Z,63.12
2022-11-09T18:54:06.060Z,64.92
2022-11-09T18:56:32.593Z,63.69
2022-11-09T18:58:59.917Z,63.20
2022-11-09T19:01:29.680Z,63.44
2022-11-09T19:03:59.818Z,63.23
2022-11-09T19:06:26.972Z,62.85
2022-11-09T19:09:12.074Z,62.54
2022-11-09T19:11:38.580Z,61.64
2022-11-09T19:14:05.038Z,61.97
2022-11-09T19:16:31.570Z,60.74
2022-11-09T19:18:58.261Z,61.34
2022-11-09T19:21:24.749Z,61.38
2022-11-09T19:23:51.956Z,60.80
2022-11-09T19:26:19.050Z,61.26
2022-11-09T19:28:45.554Z,61.01
2022-11-09T19:31:14.343Z,60.16
2022-11-09T19:33:40.789Z,60.30
2022-11-09T19:36:29.285Z,60.92
2022-11-09T19:39:05.483Z,60.50
2022-11-09T19:41:32.028Z,61.78
2022-11-09T19:43:59.307Z,61.38
2022-11-09T19:46:31.022Z,62.15
2022-11-09T19:48:57.967Z,62.23
2022-11-09T19:51:24.504Z,62.19
2022-11-09T19:53:52.813Z,62.28
2022-11-09T19:56:20.815Z,61.93
2022-11-09T19:58:51.788Z,62.76
2022-11-09T20:01:18.896Z,61.54
2022-11-09T20:03:48.722Z,60.99
2022-11-09T20:06:15.197Z,61.30
2022-11-09T20:08:41.618Z,61.03
2022-11-09T20:11:10.963Z,60.61
2022-11-09T20:13:38.397Z,61.32
2022-11-09T20:16:07.061Z,61.24
2022-11-09T20:18:38.575Z,61.00
2022-11-09T20:21:08.464Z,60.64
2022-11-09T20:23:34.895Z,60.83
2022-11-09T20:26:09.267Z,61.07
2022-11-09T20:28:36.132Z,60.69
2022-11-09T20:31:14.502Z,60.91
2022-11-09T20:33:41.259Z,60.81
2022-11-09T20:36:08.238Z,61.28
2022-11-09T20:38:34.844Z,62.76
2022-11-09T20:41:03.991Z,62.17
2022-11-09T20:43:30.893Z,62.03
2022-11-09T20:46:03.563Z,64.27
2022-11-09T20:48:52.989Z,62.01
2022-11-09T20:51:19.421Z,62.82
2022-11-09T20:53:47.128Z,65.84
2022-11-09T20:56:14.419Z,62.92
2022-11-09T20:58:41.448Z,62.83
2022-11-09T21:01:11.640Z,63.29
2022-11-09T21:03:38.750Z,64.96
2022-11-09T21:06:06.987Z,63.86
2022-11-09T21:08:34.105Z,62.32
2022-11-09T21:11:01.943Z,64.87
2022-11-09T21:13:28.905Z,62.18
2022-11-09T21:15:55.454Z,64.45
2022-11-09T21:18:22.529Z,63.73
2022-11-09T21:20:49.291Z,63.37
2022-11-09T21:23:15.709Z,62.94
2022-11-09T21:26:02.248Z,62.29
2022-11-09T21:28:47.639Z,61.40
2022-11-09T21:31:14.380Z,62.16
2022-11-09T21:33:41.269Z,61.47
2022-11-09T21:36:14.080Z,61.91
2022-11-09T21:38:40.533Z,61.18
2022-11-09T21:41:27.047Z,60.93
2022-11-09T21:43:56.546Z,61.13
2022-11-09T21:46:24.182Z,61.58
2022-11-09T21:48:50.977Z,60.78
2022-11-09T21:51:17.507Z,60.95
2022-11-09T21:53:43.946Z,62.82
2022-11-09T21:56:11.208Z,62.55
2022-11-09T21:58:37.655Z,61.13
2022-11-09T22:01:09.431Z,62.04
2022-11-09T22:03:37.413Z,61.39
2022-11-09T22:06:04.378Z,60.98
2022-11-09T22:08:31.072Z,61.13
2022-11-09T22:11:08.931Z,62.34
2022-11-09T22:13:54.662Z,62.90
2022-11-09T22:16:23.374Z,61.11
2022-11-09T22:19:08.692Z,62.42
2022-11-09T22:21:35.417Z,62.00
2022-11-09T22:24:02.910Z,64.91
2022-11-09T22:26:31.555Z,61.82
2022-11-09T22:28:58.481Z,61.76
2022-11-09T22:31:25.697Z,62.52
2022-11-09T22:33:52.976Z,65.30
2022-11-09T22:36:20.365Z,62.99
2022-11-09T22:38:47.350Z,60.92
2022-11-09T22:41:15.203Z,62.54
2022-11-09T22:43:43.556Z,63.49
2022-11-09T22:46:17.253Z,63.18
2022-11-09T22:48:44.748Z,61.20
2022-11-09T22:51:12.903Z,64.25
2022-11-09T22:53:39.718Z,64.16
2022-11-09T22:56:06.523Z,62.38
2022-11-09T22:58:33.049Z,63.39
2022-11-09T23:01:08.804Z,65.13
2022-11-09T23:03:35.796Z,65.29
2022-11-09T23:06:22.012Z,64.10
2022-11-09T23:08:48.816Z,62.54
2022-11-09T23:11:18.244Z,63.43
2022-11-09T23:13:47.851Z,64.60
2022-11-09T23:16:14.274Z,63.42
2022-11-09T23:18:56.245Z,63.41
2022-11-09T23:21:33.407Z,63.09
2022-11-09T23:24:03.017Z,64.74
2022-11-09T23:26:30.112Z,63.17
2022-11-09T23:28:56.844Z,63.90
2022-11-09T23:31:24.406Z,63.40
2022-11-09T23:33:54.398Z,62.96
2022-11-09T23:36:22.356Z,65.41
2022-11-09T23:38:49.313Z,64.59
2022-11-09T23:41:17.002Z,64.66
2022-11-09T23:43:48.648Z,64.98
2022-11-09T23:46:16.874Z,65.64
2022-11-09T23:48:43.422Z,66.80
2022-11-09T23:51:10.577Z,63.28
2022-11-09T23:53:37.627Z,65.67
2022-11-09T23:56:09.635Z,64.23
2022-11-09T23:58:36.382Z,66.80
